sensor_id;sensor_type;location;lat;lon;timestamp;P1;durP1;ratioP1;P2;durP2;ratioP2
4895;SDS011;2463;49.948;8.472;2023-03-19T00:02:03;101.93;;;7.53;;
4895;SDS011;2463;49.948;8.472;2023-03-19T00:04:42;95.47;;;7.78;;
4895;SDS011;2463;49.948;8.472;2023-03-19T00:07:10;103.13;;;9.18;;
4895;SDS011;2463;49.948;8.472;2023-03-19T00:09:36;95.18;;;7.82;;
4895;SDS011;2463;49.948;8.472;2023-03-19T00:12:03;98.57;;;8.52;;
4895;SDS011;2463;49.948;8.472;2023-03-19T00:14:31;97.40;;;7.60;;
4895;SDS011;2463;49.948;8.472;2023-03-19T00:16:57;94.25;;;7.32;;
4895;SDS011;2463;49.948;8.472;2023-03-19T00:19:24;97.65;;;6.93;;
4895;SDS011;2463;49.948;8.472;2023-03-19T00:21:51;99.43;;;8.15;;
4895;SDS011;2463;49.948;8.472;2023-03-19T00:24:18;96.45;;;7.28;;
4895;SDS011;2463;49.948;8.472;2023-03-19T00:26:45;96.50;;;8.25;;
4895;SDS011;2463;49.948;8.472;2023-03-19T00:29:13;95.65;;;8.10;;
4895;SDS011;2463;49.948;8.472;2023-03-19T00:31:40;97.53;;;7.78;;
4895;SDS011;2463;49.948;8.472;2023-03-19T00:34:07;96.93;;;8.50;;
4895;SDS011;2463;49.948;8.472;2023-03-19T00:36:35;97.97;;;7.85;;
4895;SDS011;2463;49.948;8.472;2023-03-19T00:39:02;100.50;;;8.38;;
4895;SDS011;2463;49.948;8.472;2023-03-19T00:41:29;95.65;;;8.25;;
4895;SDS011;2463;49.948;8.472;2023-03-19T00:43:57;93.97;;;7.43;;
4895;SDS011;2463;49.948;8.472;2023-03-19T00:46:24;106.35;;;7.60;;
4895;SDS011;2463;49.948;8.472;2023-03-19T00:48:51;95.10;;;8.13;;
4895;SDS011;2463;49.948;8.472;2023-03-19T00:51:21;103.35;;;7.90;;
4895;SDS011;2463;49.948;8.472;2023-03-19T00:53:48;98.20;;;8.00;;
4895;SDS011;2463;49.948;8.472;2023-03-19T00:56:16;103.70;;;7.85;;
4895;SDS011;2463;49.948;8.472;2023-03-19T00:58:43;99.35;;;8.57;;
4895;SDS011;2463;49.948;8.472;2023-03-19T01:01:11;99.13;;;8.57;;
4895;SDS011;2463;49.948;8.472;2023-03-19T01:03:39;97.57;;;8.57;;
4895;SDS011;2463;49.948;8.472;2023-03-19T01:06:06;97.53;;;9.10;;
4895;SDS011;2463;49.948;8.472;2023-03-19T01:08:33;102.97;;;8.50;;
4895;SDS011;2463;49.948;8.472;2023-03-19T01:11:18;95.93;;;8.23;;
4895;SDS011;2463;49.948;8.472;2023-03-19T01:13:45;101.95;;;8.82;;
4895;SDS011;2463;49.948;8.472;2023-03-19T01:16:13;100.70;;;9.07;;
4895;SDS011;2463;49.948;8.472;2023-03-19T01:18:39;95.43;;;8.00;;
4895;SDS011;2463;49.948;8.472;2023-03-19T01:21:06;97.10;;;8.32;;
4895;SDS011;2463;49.948;8.472;2023-03-19T01:23:33;95.53;;;8.32;;
4895;SDS011;2463;49.948;8.472;2023-03-19T01:26:00;100.25;;;8.23;;
4895;SDS011;2463;49.948;8.472;2023-03-19T01:28:26;100.63;;;8.63;;
4895;SDS011;2463;49.948;8.472;2023-03-19T01:30:56;101.07;;;9.10;;
4895;SDS011;2463;49.948;8.472;2023-03-19T01:33:25;99.03;;;7.85;;
4895;SDS011;2463;49.948;8.472;2023-03-19T01:35:51;99.68;;;8.50;;
4895;SDS011;2463;49.948;8.472;2023-03-19T01:38:18;96.38;;;8.43;;
4895;SDS011;2463;49.948;8.472;2023-03-19T01:40:45;95.65;;;7.70;;
4895;SDS011;2463;49.948;8.472;2023-03-19T01:43:15;95.03;;;7.80;;
4895;SDS011;2463;49.948;8.472;2023-03-19T01:45:44;94.63;;;7.43;;
4895;SDS011;2463;49.948;8.472;2023-03-19T01:48:27;95.47;;;7.40;;
4895;SDS011;2463;49.948;8.472;2023-03-19T01:51:04;96.60;;;8.20;;
4895;SDS011;2463;49.948;8.472;2023-03-19T01:53:32;97.85;;;8.10;;
4895;SDS011;2463;49.948;8.472;2023-03-19T01:56:06;95.53;;;7.80;;
4895;SDS011;2463;49.948;8.472;2023-03-19T01:58:40;99.72;;;8.10;;
4895;SDS011;2463;49.948;8.472;2023-03-19T02:01:08;96.88;;;7.82;;
4895;SDS011;2463;49.948;8.472;2023-03-19T02:03:36;100.70;;;8.52;;
4895;SDS011;2463;49.948;8.472;2023-03-19T02:06:04;95.88;;;7.95;;
4895;SDS011;2463;49.948;8.472;2023-03-19T02:08:31;96.10;;;8.10;;
4895;SDS011;2463;49.948;8.472;2023-03-19T02:10:59;101.25;;;8.60;;
4895;SDS011;2463;49.948;8.472;2023-03-19T02:13:27;95.30;;;7.63;;
4895;SDS011;2463;49.948;8.472;2023-03-19T02:15:54;95.38;;;8.38;;
4895;SDS011;2463;49.948;8.472;2023-03-19T02:18:21;95.18;;;8.05;;
4895;SDS011;2463;49.948;8.472;2023-03-19T02:23:46;99.20;;;8.10;;
4895;SDS011;2463;49.948;8.472;2023-03-19T02:26:30;95.28;;;7.13;;
4895;SDS011;2463;49.948;8.472;2023-03-19T02:28:57;97.00;;;8.05;;
4895;SDS011;2463;49.948;8.472;2023-03-19T02:31:24;95.97;;;7.47;;
4895;SDS011;2463;49.948;8.472;2023-03-19T02:33:58;94.00;;;6.82;;
4895;SDS011;2463;49.948;8.472;2023-03-19T02:36:31;97.78;;;6.95;;
4895;SDS011;2463;49.948;8.472;2023-03-19T02:39:03;99.80;;;6.80;;
4895;SDS011;2463;49.948;8.472;2023-03-19T02:41:33;101.05;;;7.90;;
4895;SDS011;2463;49.948;8.472;2023-03-19T02:44:04;109.25;;;7.35;;
4895;SDS011;2463;49.948;8.472;2023-03-19T02:46:32;104.60;;;7.38;;
4895;SDS011;2463;49.948;8.472;2023-03-19T02:48:59;96.38;;;7.75;;
4895;SDS011;2463;49.948;8.472;2023-03-19T02:51:26;96.50;;;7.40;;
4895;SDS011;2463;49.948;8.472;2023-03-19T02:53:53;96.22;;;7.55;;
4895;SDS011;2463;49.948;8.472;2023-03-19T02:56:20;96.70;;;7.80;;
4895;SDS011;2463;49.948;8.472;2023-03-19T02:58:46;94.65;;;7.05;;
4895;SDS011;2463;49.948;8.472;2023-03-19T03:01:13;97.15;;;8.23;;
4895;SDS011;2463;49.948;8.472;2023-03-19T03:03:40;96.47;;;8.13;;
4895;SDS011;2463;49.948;8.472;2023-03-19T03:06:07;95.68;;;6.82;;
4895;SDS011;2463;49.948;8.472;2023-03-19T03:08:34;98.00;;;8.57;;
4895;SDS011;2463;49.948;8.472;2023-03-19T03:11:01;102.90;;;8.73;;
4895;SDS011;2463;49.948;8.472;2023-03-19T03:13:28;101.03;;;8.05;;
4895;SDS011;2463;49.948;8.472;2023-03-19T03:15:55;101.13;;;8.20;;
4895;SDS011;2463;49.948;8.472;2023-03-19T03:18:22;97.18;;;9.00;;
4895;SDS011;2463;49.948;8.472;2023-03-19T03:20:48;94.05;;;7.30;;
4895;SDS011;2463;49.948;8.472;2023-03-19T03:23:15;100.68;;;8.40;;
4895;SDS011;2463;49.948;8.472;2023-03-19T03:25:42;96.22;;;7.63;;
4895;SDS011;2463;49.948;8.472;2023-03-19T03:28:08;96.05;;;8.75;;
4895;SDS011;2463;49.948;8.472;2023-03-19T03:30:35;104.13;;;8.88;;
4895;SDS011;2463;49.948;8.472;2023-03-19T03:33:03;97.10;;;7.60;;
4895;SDS011;2463;49.948;8.472;2023-03-19T03:35:30;94.43;;;7.68;;
4895;SDS011;2463;49.948;8.472;2023-03-19T03:37:56;97.40;;;8.00;;
4895;SDS011;2463;49.948;8.472;2023-03-19T03:40:24;98.60;;;8.60;;
4895;SDS011;2463;49.948;8.472;2023-03-19T03:42:50;95.43;;;8.07;;
4895;SDS011;2463;49.948;8.472;2023-03-19T03:45:17;103.82;;;8.52;;
4895;SDS011;2463;49.948;8.472;2023-03-19T03:47:44;96.28;;;8.50;;
4895;SDS011;2463;49.948;8.472;2023-03-19T03:50:11;97.18;;;8.82;;
4895;SDS011;2463;49.948;8.472;2023-03-19T03:52:39;98.15;;;8.55;;
4895;SDS011;2463;49.948;8.472;2023-03-19T03:55:07;106.30;;;8.55;;
4895;SDS011;2463;49.948;8.472;2023-03-19T03:57:34;102.82;;;9.93;;
4895;SDS011;2463;49.948;8.472;2023-03-19T04:00:01;97.60;;;8.65;;
4895;SDS011;2463;49.948;8.472;2023-03-19T04:02:29;95.50;;;8.80;;
4895;SDS011;2463;49.948;8.472;2023-03-19T04:04:55;94.78;;;8.07;;
4895;SDS011;2463;49.948;8.472;2023-03-19T04:07:22;100.65;;;9.10;;
4895;SDS011;2463;49.948;8.472;2023-03-19T04:09:49;96.93;;;8.90;;
4895;SDS011;2463;49.948;8.472;2023-03-19T04:12:16;96.40;;;9.05;;
4895;SDS011;2463;49.948;8.472;2023-03-19T04:14:42;95.18;;;7.85;;
4895;SDS011;2463;49.948;8.472;2023-03-19T04:17:09;99.22;;;9.50;;
4895;SDS011;2463;49.948;8.472;2023-03-19T04:19:36;99.15;;;8.82;;
4895;SDS011;2463;49.948;8.472;2023-03-19T04:22:02;105.55;;;9.50;;
4895;SDS011;2463;49.948;8.472;2023-03-19T04:24:29;96.57;;;8.63;;
4895;SDS011;2463;49.948;8.472;2023-03-19T04:26:56;103.05;;;10.35;;
4895;SDS011;2463;49.948;8.472;2023-03-19T04:29:22;97.32;;;8.23;;
4895;SDS011;2463;49.948;8.472;2023-03-19T04:31:49;96.63;;;8.50;;
4895;SDS011;2463;49.948;8.472;2023-03-19T04:34:16;97.85;;;7.72;;
4895;SDS011;2463;49.948;8.472;2023-03-19T04:36:43;101.28;;;10.20;;
4895;SDS011;2463;49.948;8.472;2023-03-19T04:39:09;98.50;;;9.10;;
4895;SDS011;2463;49.948;8.472;2023-03-19T04:41:36;97.82;;;9.70;;
4895;SDS011;2463;49.948;8.472;2023-03-19T04:44:03;98.95;;;10.18;;
4895;SDS011;2463;49.948;8.472;2023-03-19T04:46:30;98.05;;;9.90;;
4895;SDS011;2463;49.948;8.472;2023-03-19T04:48:57;95.95;;;9.07;;
4895;SDS011;2463;49.948;8.472;2023-03-19T04:51:24;96.32;;;9.27;;
4895;SDS011;2463;49.948;8.472;2023-03-19T04:53:51;100.72;;;9.48;;
4895;SDS011;2463;49.948;8.472;2023-03-19T04:56:18;100.25;;;10.10;;
4895;SDS011;2463;49.948;8.472;2023-03-19T04:58:44;98.38;;;10.40;;
4895;SDS011;2463;49.948;8.472;2023-03-19T05:01:11;102.28;;;10.15;;
4895;SDS011;2463;49.948;8.472;2023-03-19T05:03:38;99.72;;;9.38;;
4895;SDS011;2463;49.948;8.472;2023-03-19T05:06:05;98.40;;;9.73;;
4895;SDS011;2463;49.948;8.472;2023-03-19T05:08:31;100.22;;;10.55;;
4895;SDS011;2463;49.948;8.472;2023-03-19T05:10:58;97.47;;;9.77;;
4895;SDS011;2463;49.948;8.472;2023-03-19T05:13:25;101.55;;;10.30;;
4895;SDS011;2463;49.948;8.472;2023-03-19T05:15:52;100.20;;;9.20;;
4895;SDS011;2463;49.948;8.472;2023-03-19T05:18:20;96.40;;;9.35;;
4895;SDS011;2463;49.948;8.472;2023-03-19T05:20:48;101.85;;;9.38;;
4895;SDS011;2463;49.948;8.472;2023-03-19T05:23:14;101.13;;;9.35;;
4895;SDS011;2463;49.948;8.472;2023-03-19T05:25:42;101.60;;;9.45;;
4895;SDS011;2463;49.948;8.472;2023-03-19T05:28:09;97.38;;;9.48;;
4895;SDS011;2463;49.948;8.472;2023-03-19T05:30:36;98.50;;;9.80;;
4895;SDS011;2463;49.948;8.472;2023-03-19T05:33:03;95.43;;;9.15;;
4895;SDS011;2463;49.948;8.472;2023-03-19T05:35:30;100.57;;;9.70;;
4895;SDS011;2463;49.948;8.472;2023-03-19T05:37:57;99.45;;;9.82;;
4895;SDS011;2463;49.948;8.472;2023-03-19T05:40:24;99.63;;;10.25;;
4895;SDS011;2463;49.948;8.472;2023-03-19T05:42:51;99.53;;;9.65;;
4895;SDS011;2463;49.948;8.472;2023-03-19T05:45:17;95.45;;;9.18;;
4895;SDS011;2463;49.948;8.472;2023-03-19T05:47:47;98.82;;;9.25;;
4895;SDS011;2463;49.948;8.472;2023-03-19T05:50:16;98.85;;;8.80;;
4895;SDS011;2463;49.948;8.472;2023-03-19T05:52:43;106.50;;;10.07;;
4895;SDS011;2463;49.948;8.472;2023-03-19T05:55:10;97.60;;;10.07;;
4895;SDS011;2463;49.948;8.472;2023-03-19T05:57:37;98.80;;;9.05;;
4895;SDS011;2463;49.948;8.472;2023-03-19T06:00:05;99.55;;;10.00;;
4895;SDS011;2463;49.948;8.472;2023-03-19T06:02:33;99.03;;;10.25;;
4895;SDS011;2463;49.948;8.472;2023-03-19T06:05:01;99.90;;;9.55;;
4895;SDS011;2463;49.948;8.472;2023-03-19T06:07:28;115.28;;;10.40;;
4895;SDS011;2463;49.948;8.472;2023-03-19T06:09:55;98.97;;;9.80;;
4895;SDS011;2463;49.948;8.472;2023-03-19T06:12:22;100.90;;;9.55;;
4895;SDS011;2463;49.948;8.472;2023-03-19T06:14:49;100.82;;;9.80;;
4895;SDS011;2463;49.948;8.472;2023-03-19T06:17:17;100.63;;;9.38;;
4895;SDS011;2463;49.948;8.472;2023-03-19T06:19:43;99.47;;;10.32;;
4895;SDS011;2463;49.948;8.472;2023-03-19T06:22:10;102.30;;;9.13;;
4895;SDS011;2463;49.948;8.472;2023-03-19T06:24:37;100.82;;;9.85;;
4895;SDS011;2463;49.948;8.472;2023-03-19T06:27:04;98.00;;;9.00;;
4895;SDS011;2463;49.948;8.472;2023-03-19T06:29:34;98.85;;;9.55;;
4895;SDS011;2463;49.948;8.472;2023-03-19T06:32:03;99.40;;;10.43;;
4895;SDS011;2463;49.948;8.472;2023-03-19T06:34:31;101.85;;;10.65;;
4895;SDS011;2463;49.948;8.472;2023-03-19T06:36:57;100.65;;;8.98;;
4895;SDS011;2463;49.948;8.472;2023-03-19T06:39:25;96.55;;;8.90;;
4895;SDS011;2463;49.948;8.472;2023-03-19T06:41:54;98.18;;;9.20;;
4895;SDS011;2463;49.948;8.472;2023-03-19T06:44:21;96.97;;;9.27;;
4895;SDS011;2463;49.948;8.472;2023-03-19T06:46:50;97.50;;;9.45;;
4895;SDS011;2463;49.948;8.472;2023-03-19T06:49:16;96.05;;;8.85;;
4895;SDS011;2463;49.948;8.472;2023-03-19T06:51:44;97.75;;;9.63;;
4895;SDS011;2463;49.948;8.472;2023-03-19T06:54:11;96.95;;;9.20;;
4895;SDS011;2463;49.948;8.472;2023-03-19T06:56:37;96.82;;;8.82;;
4895;SDS011;2463;49.948;8.472;2023-03-19T06:59:04;97.47;;;8.15;;
4895;SDS011;2463;49.948;8.472;2023-03-19T07:01:31;99.25;;;8.75;;
4895;SDS011;2463;49.948;8.472;2023-03-19T07:03:57;97.68;;;8.73;;
4895;SDS011;2463;49.948;8.472;2023-03-19T07:06:24;94.75;;;8.57;;
4895;SDS011;2463;49.948;8.472;2023-03-19T07:08:51;98.07;;;9.15;;
4895;SDS011;2463;49.948;8.472;2023-03-19T07:11:18;101.43;;;8.45;;
4895;SDS011;2463;49.948;8.472;2023-03-19T07:13:44;98.10;;;8.23;;
4895;SDS011;2463;49.948;8.472;2023-03-19T07:16:11;98.00;;;8.82;;
4895;SDS011;2463;49.948;8.472;2023-03-19T07:18:38;98.70;;;8.40;;
4895;SDS011;2463;49.948;8.472;2023-03-19T07:21:05;96.82;;;8.82;;
4895;SDS011;2463;49.948;8.472;2023-03-19T07:23:31;95.90;;;8.75;;
4895;SDS011;2463;49.948;8.472;2023-03-19T07:25:58;97.22;;;8.98;;
4895;SDS011;2463;49.948;8.472;2023-03-19T07:28:25;98.88;;;8.45;;
4895;SDS011;2463;49.948;8.472;2023-03-19T07:30:52;96.85;;;8.68;;
4895;SDS011;2463;49.948;8.472;2023-03-19T07:33:19;97.63;;;8.13;;
4895;SDS011;2463;49.948;8.472;2023-03-19T07:35:47;94.03;;;8.50;;
4895;SDS011;2463;49.948;8.472;2023-03-19T07:38:14;95.47;;;8.30;;
4895;SDS011;2463;49.948;8.472;2023-03-19T07:40:40;95.90;;;8.35;;
4895;SDS011;2463;49.948;8.472;2023-03-19T07:43:24;95.05;;;8.20;;
4895;SDS011;2463;49.948;8.472;2023-03-19T07:45:51;96.90;;;8.60;;
4895;SDS011;2463;49.948;8.472;2023-03-19T07:48:18;98.07;;;8.77;;
4895;SDS011;2463;49.948;8.472;2023-03-19T07:50:44;95.78;;;8.55;;
4895;SDS011;2463;49.948;8.472;2023-03-19T07:53:11;95.97;;;8.18;;
4895;SDS011;2463;49.948;8.472;2023-03-19T07:55:38;101.03;;;8.95;;
4895;SDS011;2463;49.948;8.472;2023-03-19T07:58:05;94.18;;;8.00;;
4895;SDS011;2463;49.948;8.472;2023-03-19T08:00:31;98.10;;;8.60;;
4895;SDS011;2463;49.948;8.472;2023-03-19T08:02:58;94.68;;;8.02;;
4895;SDS011;2463;49.948;8.472;2023-03-19T08:05:25;91.65;;;7.28;;
4895;SDS011;2463;49.948;8.472;2023-03-19T08:07:52;92.78;;;7.53;;
4895;SDS011;2463;49.948;8.472;2023-03-19T08:10:19;92.97;;;7.07;;
4895;SDS011;2463;49.948;8.472;2023-03-19T08:12:46;91.10;;;6.85;;
4895;SDS011;2463;49.948;8.472;2023-03-19T08:15:13;92.93;;;6.97;;
4895;SDS011;2463;49.948;8.472;2023-03-19T08:17:40;93.10;;;6.50;;
4895;SDS011;2463;49.948;8.472;2023-03-19T08:20:08;92.63;;;7.32;;
4895;SDS011;2463;49.948;8.472;2023-03-19T08:22:37;94.75;;;6.35;;
4895;SDS011;2463;49.948;8.472;2023-03-19T08:25:05;90.38;;;6.85;;
4895;SDS011;2463;49.948;8.472;2023-03-19T08:27:33;91.55;;;6.30;;
4895;SDS011;2463;49.948;8.472;2023-03-19T08:30:01;91.45;;;6.00;;
4895;SDS011;2463;49.948;8.472;2023-03-19T08:32:32;91.40;;;6.30;;
4895;SDS011;2463;49.948;8.472;2023-03-19T08:34:59;91.20;;;7.00;;
4895;SDS011;2463;49.948;8.472;2023-03-19T08:37:26;87.20;;;5.73;;
4895;SDS011;2463;49.948;8.472;2023-03-19T08:39:53;88.17;;;5.80;;
4895;SDS011;2463;49.948;8.472;2023-03-19T08:42:20;84.57;;;5.73;;
4895;SDS011;2463;49.948;8.472;2023-03-19T08:44:47;84.80;;;5.30;;
4895;SDS011;2463;49.948;8.472;2023-03-19T08:47:15;84.83;;;5.53;;
4895;SDS011;2463;49.948;8.472;2023-03-19T08:49:41;85.80;;;5.57;;
4895;SDS011;2463;49.948;8.472;2023-03-19T08:52:08;84.70;;;5.50;;
4895;SDS011;2463;49.948;8.472;2023-03-19T08:54:35;83.33;;;4.90;;
4895;SDS011;2463;49.948;8.472;2023-03-19T08:57:02;83.90;;;4.80;;
4895;SDS011;2463;49.948;8.472;2023-03-19T08:59:28;81.87;;;4.53;;
4895;SDS011;2463;49.948;8.472;2023-03-19T09:01:59;81.70;;;4.20;;
4895;SDS011;2463;49.948;8.472;2023-03-19T09:04:26;81.07;;;4.73;;
4895;SDS011;2463;49.948;8.472;2023-03-19T09:06:54;81.47;;;4.87;;
4895;SDS011;2463;49.948;8.472;2023-03-19T09:09:22;79.10;;;4.00;;
4895;SDS011;2463;49.948;8.472;2023-03-19T09:11:49;80.13;;;4.30;;
4895;SDS011;2463;49.948;8.472;2023-03-19T09:14:16;79.17;;;3.83;;
4895;SDS011;2463;49.948;8.472;2023-03-19T09:16:45;84.57;;;4.47;;
4895;SDS011;2463;49.948;8.472;2023-03-19T09:19:12;84.70;;;4.70;;
4895;SDS011;2463;49.948;8.472;2023-03-19T09:21:38;86.43;;;5.90;;
4895;SDS011;2463;49.948;8.472;2023-03-19T09:24:05;87.77;;;5.30;;
4895;SDS011;2463;49.948;8.472;2023-03-19T09:26:32;84.93;;;5.70;;
4895;SDS011;2463;49.948;8.472;2023-03-19T09:28:59;86.80;;;5.10;;
4895;SDS011;2463;49.948;8.472;2023-03-19T09:31:27;84.53;;;5.30;;
4895;SDS011;2463;49.948;8.472;2023-03-19T09:33:55;85.67;;;5.10;;
4895;SDS011;2463;49.948;8.472;2023-03-19T09:36:21;85.30;;;4.97;;
4895;SDS011;2463;49.948;8.472;2023-03-19T09:38:48;89.17;;;7.30;;
4895;SDS011;2463;49.948;8.472;2023-03-19T09:43:54;87.47;;;5.53;;
4895;SDS011;2463;49.948;8.472;2023-03-19T09:46:35;87.43;;;5.53;;
4895;SDS011;2463;49.948;8.472;2023-03-19T09:49:20;91.70;;;5.83;;
4895;SDS011;2463;49.948;8.472;2023-03-19T09:54:46;89.65;;;6.30;;
4895;SDS011;2463;49.948;8.472;2023-03-19T09:57:17;89.93;;;6.05;;
4895;SDS011;2463;49.948;8.472;2023-03-19T09:59:44;91.00;;;6.18;;
4895;SDS011;2463;49.948;8.472;2023-03-19T10:10:28;88.80;;;5.50;;
4895;SDS011;2463;49.948;8.472;2023-03-19T10:16:04;88.72;;;5.47;;
4895;SDS011;2463;49.948;8.472;2023-03-19T10:18:38;88.47;;;5.10;;
4895;SDS011;2463;49.948;8.472;2023-03-19T10:23:44;86.88;;;4.85;;
4895;SDS011;2463;49.948;8.472;2023-03-19T10:26:13;87.57;;;4.70;;
4895;SDS011;2463;49.948;8.472;2023-03-19T10:28:42;87.43;;;4.95;;
4895;SDS011;2463;49.948;8.472;2023-03-19T10:31:17;86.20;;;4.43;;
4895;SDS011;2463;49.948;8.472;2023-03-19T10:36:31;86.27;;;4.97;;
4895;SDS011;2463;49.948;8.472;2023-03-19T10:39:01;88.30;;;5.32;;
4895;SDS011;2463;49.948;8.472;2023-03-19T10:47:34;89.35;;;5.20;;
4895;SDS011;2463;49.948;8.472;2023-03-19T10:50:04;88.70;;;5.05;;
4895;SDS011;2463;49.948;8.472;2023-03-19T10:52:35;90.20;;;5.45;;
4895;SDS011;2463;49.948;8.472;2023-03-19T10:55:11;89.63;;;5.07;;
4895;SDS011;2463;49.948;8.472;2023-03-19T10:57:41;90.40;;;5.30;;
4895;SDS011;2463;49.948;8.472;2023-03-19T11:00:14;89.47;;;5.50;;
4895;SDS011;2463;49.948;8.472;2023-03-19T11:02:45;90.35;;;5.40;;
4895;SDS011;2463;49.948;8.472;2023-03-19T11:05:22;90.80;;;6.25;;
4895;SDS011;2463;49.948;8.472;2023-03-19T11:07:50;89.13;;;5.18;;
4895;SDS011;2463;49.948;8.472;2023-03-19T11:10:23;90.22;;;5.53;;
4895;SDS011;2463;49.948;8.472;2023-03-19T11:12:55;89.07;;;5.82;;
4895;SDS011;2463;49.948;8.472;2023-03-19T11:15:35;91.55;;;5.10;;
4895;SDS011;2463;49.948;8.472;2023-03-19T11:20:42;87.28;;;5.18;;
4895;SDS011;2463;49.948;8.472;2023-03-19T11:23:29;90.45;;;5.30;;
4895;SDS011;2463;49.948;8.472;2023-03-19T11:26:02;87.27;;;5.00;;
4895;SDS011;2463;49.948;8.472;2023-03-19T11:28:29;87.40;;;5.00;;
4895;SDS011;2463;49.948;8.472;2023-03-19T11:33:55;87.97;;;5.80;;
4895;SDS011;2463;49.948;8.472;2023-03-19T11:36:37;88.60;;;5.05;;
4895;SDS011;2463;49.948;8.472;2023-03-19T11:44:28;87.45;;;5.10;;
4895;SDS011;2463;49.948;8.472;2023-03-19T11:50:10;89.00;;;5.55;;
4895;SDS011;2463;49.948;8.472;2023-03-19T12:01:09;87.82;;;5.20;;
4895;SDS011;2463;49.948;8.472;2023-03-19T12:09:36;88.13;;;5.97;;
4895;SDS011;2463;49.948;8.472;2023-03-19T12:12:24;89.40;;;6.03;;
4895;SDS011;2463;49.948;8.472;2023-03-19T12:17:51;87.00;;;5.47;;
4895;SDS011;2463;49.948;8.472;2023-03-19T12:26:38;87.90;;;5.50;;
4895;SDS011;2463;49.948;8.472;2023-03-19T12:29:26;87.55;;;5.88;;
4895;SDS011;2463;49.948;8.472;2023-03-19T12:32:10;91.32;;;6.10;;
4895;SDS011;2463;49.948;8.472;2023-03-19T12:34:45;88.53;;;5.68;;
4895;SDS011;2463;49.948;8.472;2023-03-19T12:42:55;89.05;;;5.65;;
4895;SDS011;2463;49.948;8.472;2023-03-19T12:45:25;89.47;;;5.93;;
4895;SDS011;2463;49.948;8.472;2023-03-19T12:48:06;90.43;;;5.95;;
4895;SDS011;2463;49.948;8.472;2023-03-19T12:50:43;89.13;;;5.47;;
4895;SDS011;2463;49.948;8.472;2023-03-19T12:53:18;90.03;;;5.72;;
4895;SDS011;2463;49.948;8.472;2023-03-19T12:56:30;92.65;;;5.82;;
4895;SDS011;2463;49.948;8.472;2023-03-19T13:01:36;88.68;;;5.43;;
4895;SDS011;2463;49.948;8.472;2023-03-19T13:04:18;91.15;;;5.93;;
4895;SDS011;2463;49.948;8.472;2023-03-19T13:06:51;90.95;;;5.70;;
4895;SDS011;2463;49.948;8.472;2023-03-19T13:09:31;90.80;;;5.60;;
4895;SDS011;2463;49.948;8.472;2023-03-19T13:12:09;90.10;;;5.90;;
4895;SDS011;2463;49.948;8.472;2023-03-19T13:17:52;89.85;;;5.85;;
4895;SDS011;2463;49.948;8.472;2023-03-19T13:20:49;90.95;;;6.05;;
4895;SDS011;2463;49.948;8.472;2023-03-19T13:23:38;91.22;;;6.43;;
4895;SDS011;2463;49.948;8.472;2023-03-19T13:26:08;92.00;;;6.20;;
4895;SDS011;2463;49.948;8.472;2023-03-19T13:28:38;92.93;;;7.72;;
4895;SDS011;2463;49.948;8.472;2023-03-19T13:31:20;93.68;;;6.22;;
4895;SDS011;2463;49.948;8.472;2023-03-19T13:33:52;95.43;;;7.63;;
4895;SDS011;2463;49.948;8.472;2023-03-19T13:36:30;94.03;;;6.90;;
4895;SDS011;2463;49.948;8.472;2023-03-19T13:39:03;93.15;;;7.22;;
4895;SDS011;2463;49.948;8.472;2023-03-19T13:46:47;90.43;;;5.75;;
4895;SDS011;2463;49.948;8.472;2023-03-19T13:51:54;89.82;;;5.40;;
4895;SDS011;2463;49.948;8.472;2023-03-19T13:54:39;90.13;;;5.60;;
4895;SDS011;2463;49.948;8.472;2023-03-19T13:59:41;90.13;;;5.93;;
4895;SDS011;2463;49.948;8.472;2023-03-19T14:04:53;92.55;;;5.80;;
4895;SDS011;2463;49.948;8.472;2023-03-19T14:07:35;91.88;;;6.28;;
4895;SDS011;2463;49.948;8.472;2023-03-19T14:10:12;91.95;;;5.80;;
4895;SDS011;2463;49.948;8.472;2023-03-19T14:12:45;90.57;;;6.38;;
4895;SDS011;2463;49.948;8.472;2023-03-19T14:15:16;90.25;;;5.55;;
4895;SDS011;2463;49.948;8.472;2023-03-19T14:17:56;89.38;;;5.25;;
4895;SDS011;2463;49.948;8.472;2023-03-19T14:20:27;89.93;;;5.60;;
4895;SDS011;2463;49.948;8.472;2023-03-19T14:25:54;88.50;;;4.78;;
4895;SDS011;2463;49.948;8.472;2023-03-19T14:28:31;90.63;;;4.93;;
4895;SDS011;2463;49.948;8.472;2023-03-19T14:31:02;89.43;;;5.00;;
4895;SDS011;2463;49.948;8.472;2023-03-19T14:36:01;88.63;;;4.88;;
4895;SDS011;2463;49.948;8.472;2023-03-19T14:38:41;92.55;;;5.07;;
4895;SDS011;2463;49.948;8.472;2023-03-19T14:41:19;90.20;;;5.65;;
4895;SDS011;2463;49.948;8.472;2023-03-19T14:43:54;90.70;;;5.05;;
4895;SDS011;2463;49.948;8.472;2023-03-19T14:52:01;88.45;;;4.78;;
4895;SDS011;2463;49.948;8.472;2023-03-19T14:54:39;89.93;;;5.10;;
4895;SDS011;2463;49.948;8.472;2023-03-19T14:57:16;90.82;;;5.05;;
4895;SDS011;2463;49.948;8.472;2023-03-19T14:59:45;89.30;;;5.18;;
4895;SDS011;2463;49.948;8.472;2023-03-19T15:05:05;89.93;;;5.00;;
4895;SDS011;2463;49.948;8.472;2023-03-19T15:07:35;90.10;;;5.30;;
4895;SDS011;2463;49.948;8.472;2023-03-19T15:10:05;89.63;;;5.20;;
4895;SDS011;2463;49.948;8.472;2023-03-19T15:12:48;88.95;;;5.15;;
4895;SDS011;2463;49.948;8.472;2023-03-19T15:18:08;90.57;;;5.03;;
4895;SDS011;2463;49.948;8.472;2023-03-19T15:20:38;88.55;;;5.13;;
4895;SDS011;2463;49.948;8.472;2023-03-19T15:23:12;88.50;;;5.00;;
4895;SDS011;2463;49.948;8.472;2023-03-19T15:25:54;91.88;;;4.75;;
4895;SDS011;2463;49.948;8.472;2023-03-19T15:28:33;88.95;;;5.40;;
4895;SDS011;2463;49.948;8.472;2023-03-19T15:31:19;89.50;;;4.75;;
4895;SDS011;2463;49.948;8.472;2023-03-19T15:34:17;89.38;;;4.90;;
4895;SDS011;2463;49.948;8.472;2023-03-19T15:36:52;89.28;;;4.20;;
4895;SDS011;2463;49.948;8.472;2023-03-19T15:39:27;88.65;;;4.60;;
4895;SDS011;2463;49.948;8.472;2023-03-19T15:41:59;87.35;;;4.05;;
4895;SDS011;2463;49.948;8.472;2023-03-19T15:44:29;86.85;;;4.20;;
4895;SDS011;2463;49.948;8.472;2023-03-19T15:47:02;87.03;;;4.10;;
4895;SDS011;2463;49.948;8.472;2023-03-19T15:49:36;86.72;;;4.10;;
4895;SDS011;2463;49.948;8.472;2023-03-19T15:52:05;87.07;;;4.40;;
4895;SDS011;2463;49.948;8.472;2023-03-19T15:54:36;87.53;;;4.30;;
4895;SDS011;2463;49.948;8.472;2023-03-19T15:57:04;88.45;;;4.32;;
4895;SDS011;2463;49.948;8.472;2023-03-19T15:59:32;89.65;;;4.60;;
4895;SDS011;2463;49.948;8.472;2023-03-19T16:01:59;88.70;;;4.63;;
4895;SDS011;2463;49.948;8.472;2023-03-19T16:04:28;87.72;;;4.60;;
4895;SDS011;2463;49.948;8.472;2023-03-19T16:07:21;88.32;;;4.30;;
4895;SDS011;2463;49.948;8.472;2023-03-19T16:10:23;88.60;;;4.70;;
4895;SDS011;2463;49.948;8.472;2023-03-19T16:13:17;87.68;;;4.38;;
4895;SDS011;2463;49.948;8.472;2023-03-19T16:16:00;87.93;;;4.40;;
4895;SDS011;2463;49.948;8.472;2023-03-19T16:21:32;88.15;;;4.15;;
4895;SDS011;2463;49.948;8.472;2023-03-19T16:24:05;89.75;;;4.78;;
4895;SDS011;2463;49.948;8.472;2023-03-19T16:26:38;88.68;;;4.47;;
4895;SDS011;2463;49.948;8.472;2023-03-19T16:32:01;87.97;;;4.50;;
4895;SDS011;2463;49.948;8.472;2023-03-19T16:34:50;87.55;;;4.10;;
4895;SDS011;2463;49.948;8.472;2023-03-19T16:37:29;88.68;;;4.68;;
4895;SDS011;2463;49.948;8.472;2023-03-19T16:42:42;89.35;;;4.82;;
4895;SDS011;2463;49.948;8.472;2023-03-19T16:47:40;87.80;;;4.32;;
4895;SDS011;2463;49.948;8.472;2023-03-19T16:50:14;89.15;;;4.47;;
4895;SDS011;2463;49.948;8.472;2023-03-19T16:52:43;89.88;;;4.90;;
4895;SDS011;2463;49.948;8.472;2023-03-19T16:55:18;90.55;;;4.80;;
4895;SDS011;2463;49.948;8.472;2023-03-19T16:57:57;90.95;;;5.22;;
4895;SDS011;2463;49.948;8.472;2023-03-19T17:00:27;91.63;;;5.40;;
4895;SDS011;2463;49.948;8.472;2023-03-19T17:02:57;88.68;;;4.63;;
4895;SDS011;2463;49.948;8.472;2023-03-19T17:05:25;88.40;;;4.80;;
4895;SDS011;2463;49.948;8.472;2023-03-19T17:07:52;90.18;;;4.50;;
4895;SDS011;2463;49.948;8.472;2023-03-19T17:10:23;89.25;;;3.92;;
4895;SDS011;2463;49.948;8.472;2023-03-19T17:12:53;88.75;;;4.55;;
4895;SDS011;2463;49.948;8.472;2023-03-19T17:15:22;88.65;;;4.95;;
4895;SDS011;2463;49.948;8.472;2023-03-19T17:18:09;88.28;;;4.32;;